sensor_id;sensor_type;location;lat;lon;timestamp;P1;durP1;ratioP1;P2;durP2;ratioP2
13075;SDS011;6604;52.484;13.330;2023-02-27T07:47:50;5.17;;;2.47;;
13075;SDS011;6604;52.484;13.330;2023-02-27T07:50:20;4.23;;;2.43;;
13075;SDS011;6604;52.484;13.330;2023-02-27T07:52:47;9.20;;;2.70;;
13075;SDS011;6604;52.484;13.330;2023-02-27T07:55:14;4.83;;;2.40;;
13075;SDS011;6604;52.484;13.330;2023-02-27T07:57:40;6.87;;;2.77;;
13075;SDS011;6604;52.484;13.330;2023-02-27T08:00:10;5.80;;;2.40;;
13075;SDS011;6604;52.484;13.330;2023-02-27T08:02:36;5.17;;;2.43;;
13075;SDS011;6604;52.484;13.330;2023-02-27T08:05:05;4.63;;;2.67;;
13075;SDS011;6604;52.484;13.330;2023-02-27T08:07:32;6.00;;;3.13;;
13075;SDS011;6604;52.484;13.330;2023-02-27T08:10:01;5.50;;;2.93;;
13075;SDS011;6604;52.484;13.330;2023-02-27T08:12:29;4.03;;;2.70;;
13075;SDS011;6604;52.484;13.330;2023-02-27T08:14:56;7.80;;;2.90;;
13075;SDS011;6604;52.484;13.330;2023-02-27T08:17:26;4.37;;;2.90;;
13075;SDS011;6604;52.484;13.330;2023-02-27T08:19:55;4.97;;;2.83;;
13075;SDS011;6604;52.484;13.330;2023-02-27T08:22:25;5.40;;;3.20;;
13075;SDS011;6604;52.484;13.330;2023-02-27T08:24:55;6.53;;;3.47;;
13075;SDS011;6604;52.484;13.330;2023-02-27T08:27:21;5.30;;;3.13;;
13075;SDS011;6604;52.484;13.330;2023-02-27T08:29:48;7.40;;;3.07;;
13075;SDS011;6604;52.484;13.330;2023-02-27T08:32:15;7.60;;;3.43;;
13075;SDS011;6604;52.484;13.330;2023-02-27T08:34:41;5.30;;;2.73;;
13075;SDS011;6604;52.484;13.330;2023-02-27T08:37:08;7.00;;;3.03;;
13075;SDS011;6604;52.484;13.330;2023-02-27T08:39:36;4.97;;;3.10;;
13075;SDS011;6604;52.484;13.330;2023-02-27T08:45:20;5.70;;;3.00;;
13075;SDS011;6604;52.484;13.330;2023-02-27T08:47:46;4.10;;;2.87;;
13075;SDS011;6604;52.484;13.330;2023-02-27T08:50:15;7.50;;;2.93;;
13075;SDS011;6604;52.484;13.330;2023-02-27T08:52:42;4.13;;;2.90;;
13075;SDS011;6604;52.484;13.330;2023-02-27T08:55:10;7.20;;;3.63;;
13075;SDS011;6604;52.484;13.330;2023-02-27T08:57:37;6.33;;;3.13;;
13075;SDS011;6604;52.484;13.330;2023-02-27T09:00:04;5.23;;;3.10;;
13075;SDS011;6604;52.484;13.330;2023-02-27T09:02:31;5.60;;;2.73;;
13075;SDS011;6604;52.484;13.330;2023-02-27T09:04:58;6.10;;;3.37;;
13075;SDS011;6604;52.484;13.330;2023-02-27T09:07:25;7.93;;;3.10;;
13075;SDS011;6604;52.484;13.330;2023-02-27T09:09:52;9.63;;;3.10;;
13075;SDS011;6604;52.484;13.330;2023-02-27T09:12:22;8.63;;;3.30;;
13075;SDS011;6604;52.484;13.330;2023-02-27T09:14:48;5.97;;;3.57;;
13075;SDS011;6604;52.484;13.330;2023-02-27T09:17:16;7.40;;;3.10;;
13075;SDS011;6604;52.484;13.330;2023-02-27T09:19:44;6.93;;;3.10;;
13075;SDS011;6604;52.484;13.330;2023-02-27T09:22:13;7.07;;;3.40;;
13075;SDS011;6604;52.484;13.330;2023-02-27T09:24:39;10.40;;;3.10;;
13075;SDS011;6604;52.484;13.330;2023-02-27T09:27:08;4.27;;;2.63;;
13075;SDS011;6604;52.484;13.330;2023-02-27T09:29:36;4.47;;;3.17;;
13075;SDS011;6604;52.484;13.330;2023-02-27T09:32:03;5.07;;;2.63;;
13075;SDS011;6604;52.484;13.330;2023-02-27T09:34:30;4.50;;;2.77;;
13075;SDS011;6604;52.484;13.330;2023-02-27T09:36:57;4.40;;;2.87;;
13075;SDS011;6604;52.484;13.330;2023-02-27T09:39:24;4.83;;;2.60;;
13075;SDS011;6604;52.484;13.330;2023-02-27T09:41:52;10.33;;;2.70;;
13075;SDS011;6604;52.484;13.330;2023-02-27T09:44:23;4.70;;;2.57;;
13075;SDS011;6604;52.484;13.330;2023-02-27T09:46:52;4.93;;;3.13;;
13075;SDS011;6604;52.484;13.330;2023-02-27T09:49:30;8.93;;;2.80;;
13075;SDS011;6604;52.484;13.330;2023-02-27T09:51:58;5.87;;;2.70;;
13075;SDS011;6604;52.484;13.330;2023-02-27T09:54:29;8.03;;;2.70;;
13075;SDS011;6604;52.484;13.330;2023-02-27T09:56:57;3.17;;;2.30;;
13075;SDS011;6604;52.484;13.330;2023-02-27T09:59:28;3.87;;;2.40;;
13075;SDS011;6604;52.484;13.330;2023-02-27T10:01:58;7.80;;;2.57;;
13075;SDS011;6604;52.484;13.330;2023-02-27T10:04:31;4.97;;;2.60;;
13075;SDS011;6604;52.484;13.330;2023-02-27T10:07:02;6.30;;;2.93;;
13075;SDS011;6604;52.484;13.330;2023-02-27T10:09:34;5.20;;;2.70;;
13075;SDS011;6604;52.484;13.330;2023-02-27T10:12:10;3.40;;;2.30;;
13075;SDS011;6604;52.484;13.330;2023-02-27T10:14:40;3.30;;;2.50;;
13075;SDS011;6604;52.484;13.330;2023-02-27T10:17:10;4.20;;;2.60;;
13075;SDS011;6604;52.484;13.330;2023-02-27T10:19:39;4.07;;;2.40;;
13075;SDS011;6604;52.484;13.330;2023-02-27T10:22:09;5.47;;;2.40;;
13075;SDS011;6604;52.484;13.330;2023-02-27T10:24:39;3.23;;;2.57;;
13075;SDS011;6604;52.484;13.330;2023-02-27T10:27:06;3.10;;;2.00;;
13075;SDS011;6604;52.484;13.330;2023-02-27T10:29:37;3.73;;;2.33;;
13075;SDS011;6604;52.484;13.330;2023-02-27T10:32:06;2.40;;;2.07;;
13075;SDS011;6604;52.484;13.330;2023-02-27T10:34:37;3.37;;;2.57;;
13075;SDS011;6604;52.484;13.330;2023-02-27T10:37:04;5.50;;;2.17;;
13075;SDS011;6604;52.484;13.330;2023-02-27T10:39:34;3.40;;;2.17;;
13075;SDS011;6604;52.484;13.330;2023-02-27T10:42:02;4.77;;;1.90;;
13075;SDS011;6604;52.484;13.330;2023-02-27T10:44:30;3.10;;;1.53;;
13075;SDS011;6604;52.484;13.330;2023-02-27T10:46:57;3.13;;;2.10;;
13075;SDS011;6604;52.484;13.330;2023-02-27T10:49:24;2.63;;;1.77;;
13075;SDS011;6604;52.484;13.330;2023-02-27T10:52:04;2.87;;;1.47;;
13075;SDS011;6604;52.484;13.330;2023-02-27T10:54:32;5.60;;;1.60;;
13075;SDS011;6604;52.484;13.330;2023-02-27T10:57:00;3.83;;;1.60;;
13075;SDS011;6604;52.484;13.330;2023-02-27T10:59:28;3.53;;;1.73;;
13075;SDS011;6604;52.484;13.330;2023-02-27T11:01:56;3.07;;;1.60;;
13075;SDS011;6604;52.484;13.330;2023-02-27T11:04:27;3.23;;;1.67;;
13075;SDS011;6604;52.484;13.330;2023-02-27T11:06:54;1.97;;;1.63;;
13075;SDS011;6604;52.484;13.330;2023-02-27T11:09:23;3.97;;;1.53;;
13075;SDS011;6604;52.484;13.330;2023-02-27T11:11:53;1.60;;;1.30;;
13075;SDS011;6604;52.484;13.330;2023-02-27T11:14:27;3.90;;;1.60;;
13075;SDS011;6604;52.484;13.330;2023-02-27T11:16:55;5.57;;;1.40;;
13075;SDS011;6604;52.484;13.330;2023-02-27T11:19:23;1.60;;;1.20;;
13075;SDS011;6604;52.484;13.330;2023-02-27T11:22:01;3.53;;;1.20;;
13075;SDS011;6604;52.484;13.330;2023-02-27T11:24:29;1.37;;;1.10;;
13075;SDS011;6604;52.484;13.330;2023-02-27T11:26:56;2.57;;;1.30;;
13075;SDS011;6604;52.484;13.330;2023-02-27T11:29:23;2.83;;;1.30;;
13075;SDS011;6604;52.484;13.330;2023-02-27T11:31:51;3.07;;;1.07;;
13075;SDS011;6604;52.484;13.330;2023-02-27T11:34:19;1.10;;;1.00;;
13075;SDS011;6604;52.484;13.330;2023-02-27T11:36:46;1.80;;;1.00;;
13075;SDS011;6604;52.484;13.330;2023-02-27T11:39:20;2.80;;;1.10;;
13075;SDS011;6604;52.484;13.330;2023-02-27T11:41:49;1.60;;;1.10;;
13075;SDS011;6604;52.484;13.330;2023-02-27T11:44:17;2.20;;;1.10;;
13075;SDS011;6604;52.484;13.330;2023-02-27T11:46:44;1.27;;;1.00;;
13075;SDS011;6604;52.484;13.330;2023-02-27T11:49:13;2.20;;;1.20;;
13075;SDS011;6604;52.484;13.330;2023-02-27T11:51:45;1.90;;;1.13;;
13075;SDS011;6604;52.484;13.330;2023-02-27T11:54:14;3.80;;;1.33;;
13075;SDS011;6604;52.484;13.330;2023-02-27T11:56:44;1.43;;;0.90;;
13075;SDS011;6604;52.484;13.330;2023-02-27T11:59:16;0.83;;;0.83;;
13075;SDS011;6604;52.484;13.330;2023-02-27T12:01:44;2.93;;;1.00;;
13075;SDS011;6604;52.484;13.330;2023-02-27T12:04:13;2.40;;;1.00;;
13075;SDS011;6604;52.484;13.330;2023-02-27T12:06:45;1.00;;;0.83;;
13075;SDS011;6604;52.484;13.330;2023-02-27T12:09:20;1.67;;;1.10;;
13075;SDS011;6604;52.484;13.330;2023-02-27T12:11:54;1.17;;;0.90;;
13075;SDS011;6604;52.484;13.330;2023-02-27T12:14:24;10.60;;;0.80;;
13075;SDS011;6604;52.484;13.330;2023-02-27T12:16:52;7.00;;;0.93;;
13075;SDS011;6604;52.484;13.330;2023-02-27T12:19:21;1.70;;;0.80;;
13075;SDS011;6604;52.484;13.330;2023-02-27T12:21:51;1.43;;;0.93;;
13075;SDS011;6604;52.484;13.330;2023-02-27T12:24:20;2.20;;;1.00;;
13075;SDS011;6604;52.484;13.330;2023-02-27T12:26:49;2.07;;;0.97;;
13075;SDS011;6604;52.484;13.330;2023-02-27T12:29:19;1.90;;;0.73;;
13075;SDS011;6604;52.484;13.330;2023-02-27T12:31:51;1.90;;;0.80;;
13075;SDS011;6604;52.484;13.330;2023-02-27T12:34:24;1.87;;;1.10;;
13075;SDS011;6604;52.484;13.330;2023-02-27T12:36:52;1.00;;;0.80;;
13075;SDS011;6604;52.484;13.330;2023-02-27T12:39:20;2.40;;;1.57;;
13075;SDS011;6604;52.484;13.330;2023-02-27T12:41:52;1.13;;;0.70;;
13075;SDS011;6604;52.484;13.330;2023-02-27T12:44:26;0.83;;;0.77;;
13075;SDS011;6604;52.484;13.330;2023-02-27T12:46:57;2.57;;;0.90;;
13075;SDS011;6604;52.484;13.330;2023-02-27T12:49:32;4.80;;;0.80;;
13075;SDS011;6604;52.484;13.330;2023-02-27T12:52:03;1.07;;;0.80;;
13075;SDS011;6604;52.484;13.330;2023-02-27T12:54:34;0.93;;;0.73;;
13075;SDS011;6604;52.484;13.330;2023-02-27T12:57:03;1.37;;;0.97;;
13075;SDS011;6604;52.484;13.330;2023-02-27T12:59:38;1.10;;;0.90;;
13075;SDS011;6604;52.484;13.330;2023-02-27T13:02:17;1.10;;;0.80;;
13075;SDS011;6604;52.484;13.330;2023-02-27T13:04:47;1.03;;;0.80;;
13075;SDS011;6604;52.484;13.330;2023-02-27T13:07:20;1.50;;;0.80;;
13075;SDS011;6604;52.484;13.330;2023-02-27T13:09:50;0.53;;;0.53;;
13075;SDS011;6604;52.484;13.330;2023-02-27T13:12:23;1.27;;;0.60;;
13075;SDS011;6604;52.484;13.330;2023-02-27T13:14:53;2.90;;;0.60;;
13075;SDS011;6604;52.484;13.330;2023-02-27T13:17:24;1.33;;;0.80;;
13075;SDS011;6604;52.484;13.330;2023-02-27T13:19:56;1.03;;;0.70;;
13075;SDS011;6604;52.484;13.330;2023-02-27T13:22:27;0.67;;;0.60;;
13075;SDS011;6604;52.484;13.330;2023-02-27T13:24:56;1.17;;;0.53;;
13075;SDS011;6604;52.484;13.330;2023-02-27T13:27:24;2.77;;;0.90;;
13075;SDS011;6604;52.484;13.330;2023-02-27T13:29:54;0.93;;;0.70;;
13075;SDS011;6604;52.484;13.330;2023-02-27T13:32:27;1.67;;;0.67;;
13075;SDS011;6604;52.484;13.330;2023-02-27T13:34:56;0.97;;;0.87;;
13075;SDS011;6604;52.484;13.330;2023-02-27T13:42:50;2.93;;;1.30;;
13075;SDS011;6604;52.484;13.330;2023-02-27T13:48:11;1.73;;;1.00;;
13075;SDS011;6604;52.484;13.330;2023-02-27T13:50:54;3.37;;;1.40;;
13075;SDS011;6604;52.484;13.330;2023-02-27T13:53:20;1.67;;;0.80;;
13075;SDS011;6604;52.484;13.330;2023-02-27T13:55:49;0.83;;;0.60;;
13075;SDS011;6604;52.484;13.330;2023-02-27T13:58:18;2.00;;;0.70;;
13075;SDS011;6604;52.484;13.330;2023-02-27T14:00:57;1.23;;;0.70;;
13075;SDS011;6604;52.484;13.330;2023-02-27T14:03:26;1.10;;;0.57;;
13075;SDS011;6604;52.484;13.330;2023-02-27T14:05:55;0.43;;;0.43;;
13075;SDS011;6604;52.484;13.330;2023-02-27T14:08:22;0.40;;;0.40;;
13075;SDS011;6604;52.484;13.330;2023-02-27T14:10:51;1.37;;;0.60;;
13075;SDS011;6604;52.484;13.330;2023-02-27T14:16:04;1.87;;;0.40;;
13075;SDS011;6604;52.484;13.330;2023-02-27T14:24:02;0.93;;;0.60;;
13075;SDS011;6604;52.484;13.330;2023-02-27T14:26:29;1.83;;;0.70;;
13075;SDS011;6604;52.484;13.330;2023-02-27T14:28:58;4.63;;;0.87;;
13075;SDS011;6604;52.484;13.330;2023-02-27T14:31:26;5.50;;;0.90;;
13075;SDS011;6604;52.484;13.330;2023-02-27T14:33:54;0.93;;;0.60;;
13075;SDS011;6604;52.484;13.330;2023-02-27T14:36:25;0.70;;;0.67;;
13075;SDS011;6604;52.484;13.330;2023-02-27T14:38:54;0.53;;;0.50;;
13075;SDS011;6604;52.484;13.330;2023-02-27T14:41:29;0.93;;;0.80;;
13075;SDS011;6604;52.484;13.330;2023-02-27T14:43:58;2.00;;;0.63;;
13075;SDS011;6604;52.484;13.330;2023-02-27T14:46:26;1.53;;;0.60;;
13075;SDS011;6604;52.484;13.330;2023-02-27T14:48:54;1.13;;;0.73;;
13075;SDS011;6604;52.484;13.330;2023-02-27T14:51:21;0.77;;;0.77;;
13075;SDS011;6604;52.484;13.330;2023-02-27T14:56:32;1.53;;;0.77;;
13075;SDS011;6604;52.484;13.330;2023-02-27T14:58:59;0.70;;;0.70;;
13075;SDS011;6604;52.484;13.330;2023-02-27T15:01:27;2.63;;;0.73;;
13075;SDS011;6604;52.484;13.330;2023-02-27T15:03:59;0.97;;;0.80;;
13075;SDS011;6604;52.484;13.330;2023-02-27T15:06:27;1.30;;;0.87;;
13075;SDS011;6604;52.484;13.330;2023-02-27T15:08:55;0.80;;;0.60;;
13075;SDS011;6604;52.484;13.330;2023-02-27T15:11:22;1.20;;;0.83;;
13075;SDS011;6604;52.484;13.330;2023-02-27T15:13:52;0.70;;;0.70;;
13075;SDS011;6604;52.484;13.330;2023-02-27T15:16:29;0.80;;;0.80;;
13075;SDS011;6604;52.484;13.330;2023-02-27T15:18:58;1.57;;;0.90;;
13075;SDS011;6604;52.484;13.330;2023-02-27T15:21:26;1.80;;;1.50;;
13075;SDS011;6604;52.484;13.330;2023-02-27T15:23:53;1.43;;;0.90;;
13075;SDS011;6604;52.484;13.330;2023-02-27T15:26:20;1.80;;;0.90;;
13075;SDS011;6604;52.484;13.330;2023-02-27T15:28:46;4.40;;;1.53;;
13075;SDS011;6604;52.484;13.330;2023-02-27T15:31:16;3.27;;;1.00;;
13075;SDS011;6604;52.484;13.330;2023-02-27T15:33:44;2.90;;;0.70;;
13075;SDS011;6604;52.484;13.330;2023-02-27T15:36:17;2.50;;;1.10;;
13075;SDS011;6604;52.484;13.330;2023-02-27T15:38:44;2.07;;;0.90;;
13075;SDS011;6604;52.484;13.330;2023-02-27T15:41:11;2.10;;;0.90;;
13075;SDS011;6604;52.484;13.330;2023-02-27T15:43:38;1.80;;;0.87;;
13075;SDS011;6604;52.484;13.330;2023-02-27T15:46:06;1.40;;;0.77;;
13075;SDS011;6604;52.484;13.330;2023-02-27T15:48:34;0.97;;;0.87;;
13075;SDS011;6604;52.484;13.330;2023-02-27T15:51:01;1.20;;;0.83;;
13075;SDS011;6604;52.484;13.330;2023-02-27T15:53:29;4.67;;;0.83;;
13075;SDS011;6604;52.484;13.330;2023-02-27T15:55:58;1.97;;;1.00;;
13075;SDS011;6604;52.484;13.330;2023-02-27T15:58:27;1.57;;;0.90;;
13075;SDS011;6604;52.484;13.330;2023-02-27T16:00:54;0.93;;;0.83;;
13075;SDS011;6604;52.484;13.330;2023-02-27T16:03:24;0.60;;;0.60;;
13075;SDS011;6604;52.484;13.330;2023-02-27T16:05:56;1.07;;;0.87;;
13075;SDS011;6604;52.484;13.330;2023-02-27T16:08:25;1.77;;;0.87;;
13075;SDS011;6604;52.484;13.330;2023-02-27T16:10:52;0.83;;;0.73;;
13075;SDS011;6604;52.484;13.330;2023-02-27T16:13:20;1.53;;;0.70;;
13075;SDS011;6604;52.484;13.330;2023-02-27T16:15:56;4.33;;;0.90;;
13075;SDS011;6604;52.484;13.330;2023-02-27T16:18:25;0.70;;;0.70;;
13075;SDS011;6604;52.484;13.330;2023-02-27T16:20:53;1.30;;;1.10;;
13075;SDS011;6604;52.484;13.330;2023-02-27T16:23:25;0.97;;;0.87;;
13075;SDS011;6604;52.484;13.330;2023-02-27T16:25:59;1.00;;;0.93;;
13075;SDS011;6604;52.484;13.330;2023-02-27T16:28:27;2.50;;;1.33;;
13075;SDS011;6604;52.484;13.330;2023-02-27T16:30:54;2.07;;;1.17;;
13075;SDS011;6604;52.484;13.330;2023-02-27T16:33:21;1.80;;;1.10;;
13075;SDS011;6604;52.484;13.330;2023-02-27T16:35:51;1.73;;;0.97;;
13075;SDS011;6604;52.484;13.330;2023-02-27T16:38:30;1.07;;;0.97;;
13075;SDS011;6604;52.484;13.330;2023-02-27T16:40:59;2.47;;;1.10;;
13075;SDS011;6604;52.484;13.330;2023-02-27T16:43:25;0.97;;;0.90;;
13075;SDS011;6604;52.484;13.330;2023-02-27T16:45:52;2.03;;;1.00;;
13075;SDS011;6604;52.484;13.330;2023-02-27T16:48:20;1.00;;;0.90;;
13075;SDS011;6604;52.484;13.330;2023-02-27T16:50:47;1.00;;;0.80;;
13075;SDS011;6604;52.484;13.330;2023-02-27T16:53:13;1.83;;;1.10;;
13075;SDS011;6604;52.484;13.330;2023-02-27T16:55:43;1.70;;;1.10;;
13075;SDS011;6604;52.484;13.330;2023-02-27T16:58:10;0.80;;;0.80;;
13075;SDS011;6604;52.484;13.330;2023-02-27T17:00:38;1.97;;;1.10;;
13075;SDS011;6604;52.484;13.330;2023-02-27T17:03:04;1.97;;;1.20;;
13075;SDS011;6604;52.484;13.330;2023-02-27T17:05:33;1.43;;;1.00;;
13075;SDS011;6604;52.484;13.330;2023-02-27T17:07:59;2.50;;;1.10;;
13075;SDS011;6604;52.484;13.330;2023-02-27T17:10:26;2.60;;;0.90;;
13075;SDS011;6604;52.484;13.330;2023-02-27T17:12:54;1.00;;;0.97;;
13075;SDS011;6604;52.484;13.330;2023-02-27T17:15:20;1.63;;;0.90;;
13075;SDS011;6604;52.484;13.330;2023-02-27T17:17:47;1.00;;;0.80;;
13075;SDS011;6604;52.484;13.330;2023-02-27T17:20:13;1.10;;;0.90;;
13075;SDS011;6604;52.484;13.330;2023-02-27T17:22:41;1.00;;;0.90;;
13075;SDS011;6604;52.484;13.330;2023-02-27T17:25:08;1.63;;;1.03;;
13075;SDS011;6604;52.484;13.330;2023-02-27T17:27:35;1.10;;;1.00;;
13075;SDS011;6604;52.484;13.330;2023-02-27T17:30:03;1.47;;;1.07;;
13075;SDS011;6604;52.484;13.330;2023-02-27T17:32:30;3.40;;;1.40;;
13075;SDS011;6604;52.484;13.330;2023-02-27T17:35:03;2.87;;;1.40;;
13075;SDS011;6604;52.484;13.330;2023-02-27T17:37:30;1.57;;;1.20;;
13075;SDS011;6604;52.484;13.330;2023-02-27T17:39:56;1.97;;;1.30;;
13075;SDS011;6604;52.484;13.330;2023-02-27T17:42:23;1.87;;;1.40;;
13075;SDS011;6604;52.484;13.330;2023-02-27T17:44:49;3.30;;;1.30;;
13075;SDS011;6604;52.484;13.330;2023-02-27T17:47:17;1.93;;;1.50;;
13075;SDS011;6604;52.484;13.330;2023-02-27T17:49:44;1.90;;;1.17;;
13075;SDS011;6604;52.484;13.330;2023-02-27T17:52:10;3.10;;;1.53;;
13075;SDS011;6604;52.484;13.330;2023-02-27T17:54:37;3.43;;;2.07;;
13075;SDS011;6604;52.484;13.330;2023-02-27T17:57:04;3.07;;;1.60;;
13075;SDS011;6604;52.484;13.330;2023-02-27T17:59:31;3.10;;;1.33;;
13075;SDS011;6604;52.484;13.330;2023-02-27T18:01:57;4.13;;;1.37;;
13075;SDS011;6604;52.484;13.330;2023-02-27T18:04:25;4.03;;;1.50;;
13075;SDS011;6604;52.484;13.330;2023-02-27T18:06:52;3.20;;;1.60;;
13075;SDS011;6604;52.484;13.330;2023-02-27T18:09:18;1.73;;;1.20;;
13075;SDS011;6604;52.484;13.330;2023-02-27T18:11:45;2.83;;;1.40;;
13075;SDS011;6604;52.484;13.330;2023-02-27T18:14:11;1.87;;;1.03;;
13075;SDS011;6604;52.484;13.330;2023-02-27T18:16:40;5.03;;;1.13;;
13075;SDS011;6604;52.484;13.330;2023-02-27T18:19:08;2.70;;;1.60;;
13075;SDS011;6604;52.484;13.330;2023-02-27T18:21:36;2.43;;;1.40;;
13075;SDS011;6604;52.484;13.330;2023-02-27T18:24:02;2.07;;;1.53;;
13075;SDS011;6604;52.484;13.330;2023-02-27T18:26:29;1.83;;;1.37;;
13075;SDS011;6604;52.484;13.330;2023-02-27T18:28:57;3.17;;;1.90;;
13075;SDS011;6604;52.484;13.330;2023-02-27T18:31:25;3.27;;;1.60;;
13075;SDS011;6604;52.484;13.330;2023-02-27T18:33:52;2.67;;;1.60;;
13075;SDS011;6604;52.484;13.330;2023-02-27T18:36:19;4.47;;;1.67;;
13075;SDS011;6604;52.484;13.330;2023-02-27T18:38:47;4.40;;;1.73;;
13075;SDS011;6604;52.484;13.330;2023-02-27T18:41:13;2.67;;;1.60;;
13075;SDS011;6604;52.484;13.330;2023-02-27T18:43:40;1.67;;;1.30;;
13075;SDS011;6604;52.484;13.330;2023-02-27T18:46:07;1.50;;;1.27;;
13075;SDS011;6604;52.484;13.330;2023-02-27T18:48:34;2.70;;;1.50;;
13075;SDS011;6604;52.484;13.330;2023-02-27T18:51:01;3.23;;;1.70;;
13075;SDS011;6604;52.484;13.330;2023-02-27T18:53:28;2.67;;;1.50;;
13075;SDS011;6604;52.484;13.330;2023-02-27T18:55:59;3.43;;;1.60;;
13075;SDS011;6604;52.484;13.330;2023-02-27T18:58:26;3.60;;;1.60;;
13075;SDS011;6604;52.484;13.330;2023-02-27T19:00:52;2.33;;;1.50;;
13075;SDS011;6604;52.484;13.330;2023-02-27T19:03:19;3.13;;;1.47;;
13075;SDS011;6604;52.484;13.330;2023-02-27T19:05:46;2.70;;;1.50;;
13075;SDS011;6604;52.484;13.330;2023-02-27T19:08:13;2.00;;;1.60;;
13075;SDS011;6604;52.484;13.330;2023-02-27T19:10:40;1.63;;;1.50;;
13075;SDS011;6604;52.484;13.330;2023-02-27T19:13:08;2.63;;;1.40;;
13075;SDS011;6604;52.484;13.330;2023-02-27T19:15:35;3.00;;;1.80;;
13075;SDS011;6604;52.484;13.330;2023-02-27T19:18:02;3.10;;;1.77;;
13075;SDS011;6604;52.484;13.330;2023-02-27T19:20:29;2.70;;;1.53;;
13075;SDS011;6604;52.484;13.330;2023-02-27T19:22:55;3.10;;;1.50;;
13075;SDS011;6604;52.484;13.330;2023-02-27T19:25:22;2.17;;;1.50;;
13075;SDS011;6604;52.484;13.330;2023-02-27T19:27:51;1.70;;;1.50;;
13075;SDS011;6604;52.484;13.330;2023-02-27T19:30:19;2.63;;;1.57;;
13075;SDS011;6604;52.484;13.330;2023-02-27T19:32:46;3.43;;;1.60;;
13075;SDS011;6604;52.484;13.330;2023-02-27T19:35:12;2.73;;;1.60;;
13075;SDS011;6604;52.484;13.330;2023-02-27T19:37:39;1.93;;;1.40;;
13075;SDS011;6604;52.484;13.330;2023-02-27T19:40:06;6.13;;;1.80;;
13075;SDS011;6604;52.484;13.330;2023-02-27T19:42:33;6.37;;;1.90;;
13075;SDS011;6604;52.484;13.330;2023-02-27T19:45:00;4.73;;;1.60;;
13075;SDS011;6604;52.484;13.330;2023-02-27T19:47:28;2.77;;;1.80;;
13075;SDS011;6604;52.484;13.330;2023-02-27T19:49:54;2.33;;;1.57;;
13075;SDS011;6604;52.484;13.330;2023-02-27T19:52:21;1.77;;;1.57;;
13075;SDS011;6604;52.484;13.330;2023-02-27T19:54:47;2.20;;;1.70;;
13075;SDS011;6604;52.484;13.330;2023-02-27T19:57:14;2.20;;;1.70;;
13075;SDS011;6604;52.484;13.330;2023-02-27T19:59:40;1.97;;;1.47;;
13075;SDS011;6604;52.484;13.330;2023-02-27T20:02:08;3.17;;;1.60;;
13075;SDS011;6604;52.484;13.330;2023-02-27T20:04:36;1.83;;;1.50;;
13075;SDS011;6604;52.484;13.330;2023-02-27T20:07:03;3.10;;;1.53;;
13075;SDS011;6604;52.484;13.330;2023-02-27T20:09:30;3.50;;;1.87;;
13075;SDS011;6604;52.484;13.330;2023-02-27T20:11:57;2.60;;;1.80;;
13075;SDS011;6604;52.484;13.330;2023-02-27T20:14:26;2.77;;;1.77;;
13075;SDS011;6604;52.484;13.330;2023-02-27T20:16:53;2.43;;;1.90;;
13075;SDS011;6604;52.484;13.330;2023-02-27T20:19:19;2.93;;;2.10;;
13075;SDS011;6604;52.484;13.330;2023-02-27T20:21:48;4.00;;;2.40;;
13075;SDS011;6604;52.484;13.330;2023-02-27T20:24:14;3.30;;;2.10;;
13075;SDS011;6604;52.484;13.330;2023-02-27T20:26:43;4.20;;;2.40;;
13075;SDS011;6604;52.484;13.330;2023-02-27T20:29:10;4.10;;;2.30;;
13075;SDS011;6604;52.484;13.330;2023-02-27T20:31:38;3.23;;;1.83;;
13075;SDS011;6604;52.484;13.330;2023-02-27T20:34:06;4.33;;;2.30;;
13075;SDS011;6604;52.484;13.330;2023-02-27T20:36:37;3.97;;;2.50;;
13075;SDS011;6604;52.484;13.330;2023-02-27T20:39:06;4.20;;;2.87;;
13075;SDS011;6604;52.484;13.330;2023-02-27T20:41:34;3.10;;;2.37;;
13075;SDS011;6604;52.484;13.330;2023-02-27T20:44:01;6.07;;;2.57;;
13075;SDS011;6604;52.484;13.330;2023-02-27T20:46:32;3.23;;;2.17;;
13075;SDS011;6604;52.484;13.330;2023-02-27T20:48:59;3.57;;;1.90;;
13075;SDS011;6604;52.484;13.330;2023-02-27T20:51:27;3.67;;;2.30;;
13075;SDS011;6604;52.484;13.330;2023-02-27T20:53:54;2.67;;;2.10;;
13075;SDS011;6604;52.484;13.330;2023-02-27T20:56:24;4.93;;;2.20;;
13075;SDS011;6604;52.484;13.330;2023-02-27T20:58:51;4.30;;;2.23;;
13075;SDS011;6604;52.484;13.330;2023-02-27T21:01:18;4.30;;;2.10;;
13075;SDS011;6604;52.484;13.330;2023-02-27T21:03:45;3.70;;;2.20;;
13075;SDS011;6604;52.484;13.330;2023-02-27T21:06:14;4.17;;;2.30;;
13075;SDS011;6604;52.484;13.330;2023-02-27T21:08:42;4.97;;;2.43;;
13075;SDS011;6604;52.484;13.330;2023-02-27T21:11:09;3.60;;;2.00;;
13075;SDS011;6604;52.484;13.330;2023-02-27T21:13:38;3.10;;;2.20;;
13075;SDS011;6604;52.484;13.330;2023-02-27T21:16:05;4.57;;;2.10;;
13075;SDS011;6604;52.484;13.330;2023-02-27T21:18:33;4.67;;;2.10;;
13075;SDS011;6604;52.484;13.330;2023-02-27T21:21:01;3.27;;;2.23;;
13075;SDS011;6604;52.484;13.330;2023-02-27T21:23:27;3.70;;;2.20;;
13075;SDS011;6604;52.484;13.330;2023-02-27T21:25:54;4.20;;;2.47;;
13075;SDS011;6604;52.484;13.330;2023-02-27T21:28:21;4.00;;;2.33;;
13075;SDS011;6604;52.484;13.330;2023-02-27T21:30:49;5.57;;;2.40;;
13075;SDS011;6604;52.484;13.330;2023-02-27T21:33:18;2.13;;;1.93;;
13075;SDS011;6604;52.484;13.330;2023-02-27T21:35:45;2.67;;;2.17;;
13075;SDS011;6604;52.484;13.330;2023-02-27T21:38:11;3.53;;;2.10;;
13075;SDS011;6604;52.484;13.330;2023-02-27T21:40:38;3.20;;;2.40;;
13075;SDS011;6604;52.484;13.330;2023-02-27T21:43:04;3.63;;;2.30;;
13075;SDS011;6604;52.484;13.330;2023-02-27T21:45:31;2.33;;;1.70;;
13075;SDS011;6604;52.484;13.330;2023-02-27T21:47:59;4.23;;;2.27;;
13075;SDS011;6604;52.484;13.330;2023-02-27T21:50:26;4.07;;;2.30;;
13075;SDS011;6604;52.484;13.330;2023-02-27T21:52:52;4.07;;;2.50;;
13075;SDS011;6604;52.484;13.330;2023-02-27T21:55:19;3.63;;;1.90;;
13075;SDS011;6604;52.484;13.330;2023-02-27T21:57:45;3.63;;;2.10;;
13075;SDS011;6604;52.484;13.330;2023-02-27T22:00:12;5.20;;;2.07;;
13075;SDS011;6604;52.484;13.330;2023-02-27T22:02:41;2.97;;;2.17;;
13075;SDS011;6604;52.484;13.330;2023-02-27T22:05:09;3.20;;;2.27;;
13075;SDS011;6604;52.484;13.330;2023-02-27T22:07:35;2.73;;;2.10;;
13075;SDS011;6604;52.484;13.330;2023-02-27T22:10:02;3.00;;;1.90;;
13075;SDS011;6604;52.484;13.330;2023-02-27T22:12:29;4.07;;;2.10;;
13075;SDS011;6604;52.484;13.330;2023-02-27T22:14:56;4.07;;;2.30;;
13075;SDS011;6604;52.484;13.330;2023-02-27T22:17:22;5.20;;;2.83;;
13075;SDS011;6604;52.484;13.330;2023-02-27T22:19:49;3.90;;;2.27;;
13075;SDS011;6604;52.484;13.330;2023-02-27T22:22:18;5.23;;;2.87;;
13075;SDS011;6604;52.484;13.330;2023-02-27T22:24:45;7.13;;;3.67;;
13075;SDS011;6604;52.484;13.330;2023-02-27T22:27:11;8.30;;;3.10;;
13075;SDS011;6604;52.484;13.330;2023-02-27T22:29:39;5.63;;;2.90;;
